createdAt,value
2022-10-29T00:01:35.304Z,14.58
2022-10-29T00:04:39.975Z,14.57
2022-10-29T00:07:46.248Z,14.58
2022-10-29T00:10:51.172Z,14.56
2022-10-29T00:13:58.719Z,14.51
2022-10-29T00:17:03.481Z,14.52
2022-10-29T00:20:10.167Z,14.56
2022-10-29T00:23:17.118Z,14.57
2022-10-29T00:26:23.118Z,14.58
2022-10-29T00:29:27.788Z,14.54
2022-10-29T00:32:32.791Z,14.56
2022-10-29T00:35:37.562Z,14.57
2022-10-29T00:38:44.052Z,14.51
2022-10-29T00:41:48.763Z,14.51
2022-10-29T00:44:53.449Z,14.48
2022-10-29T00:47:58.644Z,14.49
2022-10-29T00:51:04.989Z,14.46
2022-10-29T00:54:13.405Z,14.43
2022-10-29T00:57:21.965Z,14.36
2022-10-29T01:00:26.710Z,14.44
2022-10-29T01:03:32.003Z,14.41
2022-10-29T01:06:36.718Z,14.45
2022-10-29T01:09:43.584Z,14.29
2022-10-29T01:13:06.056Z,14.41
2022-10-29T01:16:19.346Z,14.41
2022-10-29T01:19:45.865Z,14.42
2022-10-29T01:23:04.326Z,14.43
2022-10-29T01:26:40.041Z,14.46
2022-10-29T01:30:01.186Z,14.39
2022-10-29T01:33:13.855Z,14.30
2022-10-29T01:36:27.196Z,14.31
2022-10-29T01:39:40.893Z,14.32
2022-10-29T01:42:51.136Z,14.37
2022-10-29T01:46:02.189Z,14.35
2022-10-29T01:49:12.410Z,14.40
2022-10-29T01:52:19.565Z,14.36
2022-10-29T01:55:32.119Z,14.35
2022-10-29T01:58:38.319Z,14.34
2022-10-29T02:01:53.282Z,14.43
2022-10-29T02:05:13.356Z,14.39
2022-10-29T02:08:26.935Z,14.41
2022-10-29T02:11:40.587Z,14.35
2022-10-29T02:14:50.595Z,14.31
2022-10-29T02:17:59.409Z,14.32
2022-10-29T02:21:05.621Z,14.31
2022-10-29T02:24:11.749Z,14.35
2022-10-29T02:27:16.564Z,14.32
2022-10-29T02:30:21.641Z,14.31
2022-10-29T02:33:26.318Z,14.31
2022-10-29T02:36:32.930Z,14.32
2022-10-29T02:39:38.063Z,14.31
2022-10-29T02:42:43.061Z,14.28
2022-10-29T02:45:47.949Z,14.28
2022-10-29T02:48:52.808Z,14.24
2022-10-29T02:51:58.766Z,14.16
2022-10-29T02:55:03.405Z,14.17
2022-10-29T02:58:09.012Z,14.19
2022-10-29T03:01:13.828Z,14.16
2022-10-29T03:04:18.620Z,14.12
2022-10-29T03:07:24.773Z,14.18
2022-10-29T03:10:30.007Z,14.22
2022-10-29T03:13:35.163Z,14.17
2022-10-29T03:16:40.056Z,14.20
2022-10-29T03:19:44.781Z,14.29
2022-10-29T03:22:50.858Z,14.21
2022-10-29T03:25:57.095Z,14.25
2022-10-29T03:29:02.404Z,14.29
2022-10-29T03:32:07.824Z,14.22
2022-10-29T03:35:15.629Z,14.16
2022-10-29T03:38:22.094Z,14.27
2022-10-29T03:41:26.730Z,14.29
2022-10-29T03:44:32.015Z,14.26
2022-10-29T03:47:36.841Z,14.24
2022-10-29T03:50:41.514Z,14.25
2022-10-29T03:53:47.660Z,14.32
2022-10-29T03:56:52.473Z,14.32
2022-10-29T03:59:57.236Z,14.34
2022-10-29T04:03:02.236Z,14.29
2022-10-29T04:06:12.836Z,14.35
2022-10-29T04:09:19.037Z,14.31
2022-10-29T04:12:23.611Z,14.34
2022-10-29T04:15:28.692Z,14.39
2022-10-29T04:18:33.633Z,14.42
2022-10-29T04:28:44.155Z,14.39
2022-10-29T04:31:49.284Z,14.42
2022-10-29T04:34:54.039Z,14.46
2022-10-29T04:37:58.652Z,14.52
2022-10-29T04:41:05.452Z,14.54
2022-10-29T04:44:11.487Z,14.51
2022-10-29T04:47:16.306Z,14.53
2022-10-29T04:50:21.162Z,14.53
2022-10-29T04:53:26.283Z,14.52
2022-10-29T04:56:32.784Z,14.50
2022-10-29T04:59:37.456Z,14.52
2022-10-29T05:02:42.146Z,14.56
2022-10-29T05:05:47.176Z,14.58
2022-10-29T05:08:51.779Z,14.57
2022-10-29T05:11:57.857Z,14.56
2022-10-29T05:15:02.496Z,14.59
2022-10-29T05:18:09.038Z,14.65
2022-10-29T05:21:13.801Z,14.66
2022-10-29T05:24:18.559Z,14.70
2022-10-29T05:27:24.575Z,14.73
2022-10-29T05:30:29.697Z,14.78
2022-10-29T05:33:34.465Z,14.79
2022-10-29T05:36:39.344Z,14.77
2022-10-29T05:39:43.956Z,14.80
2022-10-29T05:42:50.323Z,14.84
2022-10-29T05:45:55.007Z,14.88
2022-10-29T05:48:59.728Z,14.88
2022-10-29T05:52:04.573Z,14.91
2022-10-29T05:55:10.904Z,14.93
2022-10-29T05:58:17.092Z,14.89
2022-10-29T06:01:21.826Z,14.89
2022-10-29T06:04:26.694Z,14.95
2022-10-29T06:07:31.358Z,14.98
2022-10-29T06:10:36.741Z,14.97
2022-10-29T06:13:43.024Z,14.99
2022-10-29T06:16:47.605Z,14.99
2022-10-29T06:19:52.495Z,15.00
2022-10-29T06:23:00.476Z,14.98
2022-10-29T06:26:05.307Z,15.05
2022-10-29T06:29:11.449Z,15.03
2022-10-29T06:32:16.529Z,15.05
2022-10-29T06:35:21.668Z,15.05
2022-10-29T06:38:26.469Z,15.02
2022-10-29T06:41:31.126Z,15.06
2022-10-29T06:44:37.191Z,15.07
2022-10-29T06:47:43.003Z,15.08
2022-10-29T06:50:47.694Z,15.08
2022-10-29T06:53:54.195Z,15.10
2022-10-29T06:56:58.992Z,15.08
2022-10-29T07:00:08.591Z,15.11
2022-10-29T07:03:23.100Z,15.12
2022-10-29T07:06:28.330Z,15.10
2022-10-29T07:09:33.348Z,15.02
2022-10-29T07:12:42.032Z,14.96
2022-10-29T07:15:48.544Z,14.99
2022-10-29T07:18:54.085Z,14.98
2022-10-29T07:21:58.806Z,14.93
2022-10-29T07:25:03.646Z,14.88
2022-10-29T07:28:12.786Z,14.80
2022-10-29T07:31:18.812Z,14.85
2022-10-29T07:34:23.756Z,14.76
2022-10-29T07:37:29.116Z,14.66
2022-10-29T07:40:33.873Z,14.57
2022-10-29T07:43:38.822Z,14.57
2022-10-29T07:46:45.088Z,14.46
2022-10-29T07:49:49.733Z,14.54
2022-10-29T07:52:54.715Z,14.49
2022-10-29T07:56:01.080Z,14.46
2022-10-29T07:59:06.110Z,14.45
2022-10-29T08:02:13.938Z,14.45
2022-10-29T08:05:18.758Z,14.32
2022-10-29T08:08:23.436Z,14.31
2022-10-29T08:11:28.329Z,14.28
2022-10-29T08:14:32.906Z,14.31
2022-10-29T08:17:39.051Z,14.26
2022-10-29T08:20:43.870Z,14.30
2022-10-29T08:23:48.754Z,14.25
2022-10-29T08:26:53.501Z,14.27
2022-10-29T08:29:58.702Z,14.23
2022-10-29T08:33:05.645Z,14.23
2022-10-29T08:36:11.622Z,14.26
2022-10-29T08:39:16.418Z,14.25
2022-10-29T08:42:35.202Z,14.25
2022-10-29T08:45:41.924Z,14.29
2022-10-29T08:48:52.773Z,14.31
2022-10-29T08:52:04.131Z,14.32
2022-10-29T08:55:16.396Z,14.34
2022-10-29T08:58:32.271Z,14.34
2022-10-29T09:01:37.735Z,14.31
2022-10-29T09:04:44.395Z,14.40
2022-10-29T09:08:20.018Z,14.36
2022-10-29T09:11:45.875Z,14.41
2022-10-29T09:15:30.969Z,14.36
2022-10-29T09:18:56.774Z,14.41
2022-10-29T09:22:12.293Z,14.36
2022-10-29T09:25:21.218Z,14.41
2022-10-29T09:28:37.731Z,14.41
2022-10-29T09:31:45.231Z,14.43
2022-10-29T09:34:52.690Z,14.45
2022-10-29T09:38:01.410Z,14.50
2022-10-29T09:41:06.899Z,14.44
2022-10-29T09:44:21.088Z,14.45
2022-10-29T09:47:36.584Z,14.50
2022-10-29T09:50:49.475Z,14.48
2022-10-29T09:53:55.864Z,14.52
2022-10-29T09:57:03.153Z,14.49
2022-10-29T10:00:19.222Z,14.56
2022-10-29T10:03:30.394Z,14.54
2022-10-29T10:07:05.053Z,14.54
2022-10-29T10:10:22.272Z,14.56
2022-10-29T10:13:29.401Z,14.67
2022-10-29T10:16:34.969Z,14.62
2022-10-29T10:19:45.974Z,14.65
2022-10-29T10:22:50.685Z,14.65
2022-10-29T10:26:02.131Z,14.69
2022-10-29T10:29:15.607Z,14.69
2022-10-29T10:32:20.319Z,14.66
2022-10-29T10:35:30.579Z,14.69
2022-10-29T10:38:45.422Z,14.73
2022-10-29T10:41:52.456Z,14.74
2022-10-29T10:45:00.435Z,14.77
2022-10-29T10:48:11.073Z,14.77
2022-10-29T10:51:24.880Z,14.76
2022-10-29T10:54:37.059Z,14.78
2022-10-29T10:57:50.797Z,14.77
2022-10-29T11:01:00.188Z,14.84
2022-10-29T11:04:14.876Z,14.79
2022-10-29T11:07:19.792Z,14.85
2022-10-29T11:10:32.594Z,14.85
2022-10-29T11:13:41.505Z,14.87
2022-10-29T11:16:50.908Z,14.90
2022-10-29T11:20:00.008Z,14.89
2022-10-29T11:23:28.433Z,14.85
2022-10-29T11:26:36.905Z,14.91
2022-10-29T11:29:51.100Z,14.90
2022-10-29T11:33:01.970Z,14.90
2022-10-29T11:36:14.056Z,14.95
2022-10-29T11:39:22.923Z,14.81
2022-10-29T11:42:27.970Z,14.93
2022-10-29T11:45:41.924Z,14.88
2022-10-29T11:48:59.008Z,14.88
2022-10-29T11:52:09.551Z,14.88
2022-10-29T11:55:27.632Z,14.81
2022-10-29T11:58:40.541Z,14.75
2022-10-29T12:01:53.601Z,14.78
2022-10-29T12:05:02.874Z,14.71
2022-10-29T12:08:22.843Z,14.72
2022-10-29T12:11:42.061Z,14.63
2022-10-29T12:14:52.784Z,14.62
2022-10-29T12:18:07.529Z,14.64
2022-10-29T12:21:21.529Z,14.56
2022-10-29T12:24:47.142Z,14.55
2022-10-29T12:28:01.564Z,14.60
2022-10-29T12:31:17.996Z,14.53
2022-10-29T12:34:30.171Z,14.55
2022-10-29T12:37:43.395Z,14.57
2022-10-29T12:40:52.212Z,14.58
2022-10-29T12:44:04.298Z,14.58
2022-10-29T12:47:15.328Z,14.54
2022-10-29T12:50:34.753Z,14.60
2022-10-29T12:53:45.277Z,14.59
2022-10-29T12:56:50.507Z,14.59
2022-10-29T12:59:55.607Z,14.53
2022-10-29T13:03:01.238Z,14.56
2022-10-29T13:06:52.534Z,14.58
2022-10-29T13:10:49.037Z,14.59
2022-10-29T13:13:57.522Z,14.59
2022-10-29T13:17:04.712Z,14.59
2022-10-29T13:20:22.538Z,14.56
2022-10-29T13:23:37.421Z,14.52
2022-10-29T13:27:02.579Z,14.52
2022-10-29T13:30:25.509Z,14.48
2022-10-29T13:33:52.460Z,14.50
2022-10-29T13:38:03.486Z,14.48
2022-10-29T13:41:15.981Z,14.45
2022-10-29T13:44:23.703Z,14.44
2022-10-29T13:47:28.561Z,14.47
2022-10-29T13:50:33.416Z,14.45
2022-10-29T13:53:43.341Z,14.45
2022-10-29T13:56:54.650Z,14.39
2022-10-29T14:00:05.018Z,14.43
2022-10-29T14:03:17.866Z,14.41
2022-10-29T14:06:26.326Z,14.35
2022-10-29T14:09:39.476Z,14.36
2022-10-29T14:12:45.648Z,14.36
2022-10-29T14:16:03.446Z,14.35
2022-10-29T14:19:15.873Z,14.28
2022-10-29T14:22:36.462Z,14.30
2022-10-29T14:25:41.249Z,14.29
2022-10-29T14:28:47.250Z,14.26
2022-10-29T14:32:06.866Z,14.20
2022-10-29T14:35:17.661Z,14.21
2022-10-29T14:38:34.942Z,14.15
2022-10-29T14:41:40.841Z,14.12
2022-10-29T14:44:49.989Z,14.16
2022-10-29T14:47:57.930Z,14.14
2022-10-29T14:51:02.663Z,14.06
2022-10-29T14:54:09.778Z,14.05
2022-10-29T14:57:17.683Z,14.01
2022-10-29T15:00:30.152Z,14.05
2022-10-29T15:03:36.223Z,14.05
2022-10-29T15:06:41.011Z,14.06
2022-10-29T15:09:47.905Z,14.06
2022-10-29T15:12:55.352Z,14.03
2022-10-29T15:16:05.149Z,14.00
2022-10-29T15:19:15.476Z,14.01
2022-10-29T15:22:24.857Z,13.87
2022-10-29T15:25:32.882Z,13.96
2022-10-29T15:28:41.347Z,13.95
2022-10-29T15:31:49.568Z,13.96
2022-10-29T15:34:56.626Z,13.93
2022-10-29T15:38:01.703Z,13.87
2022-10-29T15:41:34.376Z,13.85
2022-10-29T15:44:40.772Z,13.81
2022-10-29T15:47:49.442Z,13.81
2022-10-29T15:50:54.227Z,13.78
2022-10-29T15:54:03.400Z,13.82
2022-10-29T15:57:10.746Z,13.81
2022-10-29T16:00:16.321Z,13.78
2022-10-29T16:03:25.085Z,13.80
2022-10-29T16:06:29.960Z,13.74
2022-10-29T16:09:34.758Z,13.76
2022-10-29T16:12:40.161Z,13.77
2022-10-29T16:15:45.012Z,13.71
2022-10-29T16:18:52.693Z,13.72
2022-10-29T16:22:00.567Z,13.71
2022-10-29T16:25:06.816Z,13.69
2022-10-29T16:28:15.731Z,13.67
2022-10-29T16:31:23.210Z,13.66
2022-10-29T16:34:29.412Z,13.64
2022-10-29T16:37:34.094Z,13.59
2022-10-29T16:40:39.482Z,13.64
2022-10-29T16:43:44.525Z,13.62
2022-10-29T16:46:49.121Z,13.58
2022-10-29T16:49:55.323Z,13.57
2022-10-29T16:53:01.362Z,13.57
2022-10-29T16:56:07.186Z,13.54
2022-10-29T16:59:14.263Z,13.53
2022-10-29T17:02:18.892Z,13.51
2022-10-29T17:05:25.368Z,13.51
2022-10-29T17:08:33.847Z,13.45
2022-10-29T17:11:38.645Z,13.44
2022-10-29T17:14:43.893Z,13.44
2022-10-29T17:17:48.811Z,13.42
2022-10-29T17:20:59.762Z,13.41
2022-10-29T17:24:07.719Z,13.36
2022-10-29T17:27:14.558Z,13.30
2022-10-29T17:30:19.485Z,13.27
2022-10-29T17:33:24.251Z,13.29
2022-10-29T17:36:30.236Z,13.26
2022-10-29T17:39:34.935Z,13.22
2022-10-29T17:42:40.021Z,13.22
2022-10-29T17:45:44.712Z,13.25
2022-10-29T17:48:49.286Z,13.24
2022-10-29T17:51:55.344Z,13.19
2022-10-29T17:55:00.369Z,13.28
2022-10-29T17:58:05.124Z,13.20
2022-10-29T18:01:12.415Z,13.19
2022-10-29T18:04:17.232Z,13.22
2022-10-29T18:07:23.743Z,13.20
2022-10-29T18:10:29.304Z,13.18
2022-10-29T18:13:39.345Z,13.20
2022-10-29T18:16:43.950Z,13.19
2022-10-29T18:19:48.795Z,13.19
2022-10-29T18:22:56.130Z,13.19
2022-10-29T18:26:05.292Z,13.15
2022-10-29T18:29:13.183Z,13.11
2022-10-29T18:32:18.684Z,13.13
2022-10-29T18:35:23.372Z,13.10
2022-10-29T18:38:30.909Z,13.08
2022-10-29T18:41:36.122Z,13.02
2022-10-29T18:44:41.192Z,13.08
2022-10-29T18:47:45.928Z,13.02
2022-10-29T18:50:50.844Z,13.06
2022-10-29T18:53:58.876Z,13.03
2022-10-29T18:57:03.671Z,12.99
2022-10-29T19:00:10.568Z,13.00
2022-10-29T19:03:17.787Z,12.99
2022-10-29T19:06:24.306Z,12.92
2022-10-29T19:09:30.629Z,12.95
2022-10-29T19:12:35.413Z,12.92
2022-10-29T19:15:40.469Z,12.93
2022-10-29T19:18:45.350Z,12.95
2022-10-29T19:21:50.349Z,12.90
2022-10-29T19:24:56.416Z,12.87
2022-10-29T19:28:01.057Z,12.92
2022-10-29T19:31:07.884Z,12.95
2022-10-29T19:34:12.854Z,12.90
2022-10-29T19:37:17.707Z,12.91
2022-10-29T19:40:23.696Z,12.85
2022-10-29T19:43:29.685Z,12.82
2022-10-29T19:46:34.597Z,12.80
2022-10-29T19:49:39.324Z,12.80
2022-10-29T19:52:43.929Z,12.76
2022-10-29T19:55:50.604Z,12.72
2022-10-29T19:58:55.573Z,12.69
2022-10-29T20:02:00.454Z,12.65
2022-10-29T20:05:06.160Z,12.67
2022-10-29T20:08:15.985Z,12.63
2022-10-29T20:11:23.164Z,12.54
2022-10-29T20:14:29.119Z,12.54
2022-10-29T20:17:34.136Z,12.50
2022-10-29T20:20:39.121Z,12.45
2022-10-29T20:23:46.116Z,12.45
2022-10-29T20:26:52.502Z,12.43
2022-10-29T20:29:57.162Z,12.36
2022-10-29T20:33:01.815Z,12.38
2022-10-29T20:36:09.927Z,12.32
2022-10-29T20:39:15.093Z,12.26
2022-10-29T20:42:21.094Z,12.25
2022-10-29T20:45:25.798Z,12.22
2022-10-29T20:48:31.289Z,12.20
2022-10-29T20:51:36.025Z,12.20
2022-10-29T20:54:40.636Z,12.18
2022-10-29T20:57:46.616Z,12.14
2022-10-29T21:00:51.318Z,12.06
2022-10-29T21:03:56.670Z,12.07
2022-10-29T21:07:01.303Z,11.94
2022-10-29T21:10:07.500Z,11.95
2022-10-29T21:13:15.131Z,11.92
2022-10-29T21:16:22.647Z,11.91
2022-10-29T21:19:28.214Z,11.78
2022-10-29T21:22:33.031Z,11.76
2022-10-29T21:25:38.076Z,11.79
2022-10-29T21:28:44.599Z,11.71
2022-10-29T21:31:50.004Z,11.69
2022-10-29T21:34:54.780Z,11.62
2022-10-29T21:38:00.039Z,11.62
2022-10-29T21:41:05.008Z,11.56
2022-10-29T21:44:11.152Z,11.55
2022-10-29T21:47:15.855Z,11.52
2022-10-29T21:50:21.185Z,11.47
2022-10-29T21:53:25.858Z,11.44
2022-10-29T21:56:30.612Z,11.44
2022-10-29T21:59:36.849Z,11.36
2022-10-29T22:02:41.658Z,11.38
2022-10-29T22:05:46.504Z,11.36
2022-10-29T22:08:56.188Z,11.30
2022-10-29T22:12:01.246Z,11.25
2022-10-29T22:15:09.962Z,11.24
2022-10-29T22:18:15.897Z,11.14
2022-10-29T22:21:23.162Z,11.08
2022-10-29T22:24:27.832Z,11.05
2022-10-29T22:27:32.891Z,11.05
2022-10-29T22:30:39.139Z,10.96
2022-10-29T22:33:43.844Z,10.94
2022-10-29T22:36:50.909Z,10.98
2022-10-29T22:39:55.860Z,10.93
2022-10-29T22:43:00.811Z,10.84
2022-10-29T22:46:08.790Z,10.80
2022-10-29T22:49:13.439Z,10.67
2022-10-29T22:52:19.810Z,10.65
2022-10-29T22:55:24.823Z,10.59
2022-10-29T22:58:29.752Z,10.65
2022-10-29T23:01:40.579Z,10.54
2022-10-29T23:04:49.804Z,10.49
2022-10-29T23:07:54.900Z,10.50
2022-10-29T23:11:00.639Z,10.47
2022-10-29T23:14:05.561Z,10.37
2022-10-29T23:17:19.777Z,10.35
2022-10-29T23:20:24.686Z,10.40
2022-10-29T23:23:29.553Z,10.38
2022-10-29T23:26:34.321Z,10.32
2022-10-29T23:29:39.592Z,10.22
2022-10-29T23:32:46.215Z,10.22
2022-10-29T23:35:51.150Z,10.14
2022-10-29T23:38:56.803Z,10.09
2022-10-29T23:42:01.596Z,9.99
2022-10-29T23:45:08.121Z,9.98
2022-10-29T23:48:17.093Z,9.94
2022-10-29T23:51:22.387Z,9.93
2022-10-29T23:54:27.375Z,9.85
2022-10-29T23:57:32.112Z,9.73
